createdAt,value
2023-01-08T00:06:57.033Z,99841.97
2023-01-08T00:17:02.626Z,99822.22
2023-01-08T00:27:05.658Z,99819.50
2023-01-08T00:37:10.041Z,99797.13
2023-01-08T00:47:13.301Z,99791.97
2023-01-08T00:57:17.546Z,99778.31
2023-01-08T01:07:20.686Z,99772.81
2023-01-08T01:17:25.213Z,99772.09
2023-01-08T01:27:28.336Z,99772.09
2023-01-08T01:37:32.770Z,99767.28
2023-01-08T01:47:39.094Z,99762.75
2023-01-08T01:57:48.550Z,99753.53
2023-01-08T02:07:59.412Z,99749.09
2023-01-08T02:18:09.321Z,99733.53
2023-01-08T02:28:15.956Z,99705.19
2023-01-08T02:38:19.608Z,99686.31
2023-01-08T02:48:34.954Z,99657.94
2023-01-08T02:58:39.642Z,99626.91
2023-01-08T03:08:47.236Z,99626.13
2023-01-08T03:18:56.264Z,99620.16
2023-01-08T03:29:03.956Z,99619.19
2023-01-08T03:39:14.787Z,99644.09
2023-01-08T03:49:20.661Z,99655.94
2023-01-08T03:59:23.893Z,99649.63
2023-01-08T04:09:28.108Z,99637.56
2023-01-08T04:19:31.088Z,99630.09
2023-01-08T04:29:35.490Z,99624.06
2023-01-08T04:39:38.469Z,99615.81
2023-01-08T04:49:42.983Z,99616.59
2023-01-08T04:59:45.801Z,99615.09
2023-01-08T05:09:50.042Z,99610.66
2023-01-08T05:19:53.109Z,99591.91
2023-01-08T05:29:57.534Z,99585.16
2023-01-08T05:40:00.605Z,99578.25
2023-01-08T05:50:06.221Z,99586.16
2023-01-08T06:00:11.587Z,99587.06
2023-01-08T06:10:16.141Z,99583.06
2023-01-08T06:20:20.214Z,99602.72
2023-01-08T06:30:24.399Z,99597.56
2023-01-08T06:40:27.245Z,99601.63
2023-01-08T06:50:31.957Z,99601.16
2023-01-08T07:00:34.782Z,99607.56
2023-01-08T07:10:38.939Z,99606.84
2023-01-08T07:20:41.806Z,99620.84
2023-01-08T07:30:45.874Z,99615.41
2023-01-08T07:40:49.388Z,99610.50
2023-01-08T07:51:24.846Z,99623.59
2023-01-08T08:01:28.057Z,99632.91
2023-01-08T08:11:32.562Z,99636.00
2023-01-08T08:21:35.592Z,99641.44
2023-01-08T08:31:39.972Z,99635.50
2023-01-08T08:41:43.475Z,99630.06
2023-01-08T08:51:47.998Z,99602.72
2023-01-08T09:01:51.325Z,99577.66
2023-01-08T09:11:55.871Z,99564.59
2023-01-08T09:21:58.799Z,99571.72
2023-01-08T09:32:03.423Z,99580.88
2023-01-08T09:42:07.101Z,99582.16
2023-01-08T09:52:14.092Z,99574.97
2023-01-08T10:02:19.523Z,99573.91
2023-01-08T10:12:29.231Z,99561.59
2023-01-08T10:22:34.452Z,99542.94
2023-01-08T10:32:38.861Z,99523.16
2023-01-08T10:42:42.300Z,99517.13
2023-01-08T10:52:53.883Z,99489.25
2023-01-08T11:02:59.352Z,99462.22
2023-01-08T11:13:07.215Z,99463.81
2023-01-08T11:23:17.790Z,99446.91
2023-01-08T11:33:27.893Z,99435.50
2023-01-08T11:43:41.732Z,99414.25
2023-01-08T11:53:53.445Z,99402.44
2023-01-08T12:04:19.202Z,99383.13
2023-01-08T12:14:34.083Z,99378.47
2023-01-08T12:24:52.231Z,99365.59
2023-01-08T12:35:04.566Z,99356.66
2023-01-08T12:45:17.318Z,99358.78
2023-01-08T12:55:32.862Z,99360.91
2023-01-08T13:05:38.265Z,99333.69
2023-01-08T13:15:42.771Z,99345.19
2023-01-08T13:25:53.305Z,99330.25
2023-01-08T13:36:23.162Z,99309.50
2023-01-08T13:46:26.574Z,99307.34
2023-01-08T13:56:31.919Z,99298.38
2023-01-08T14:06:37.232Z,99287.34
2023-01-08T14:16:42.674Z,99273.69
2023-01-08T14:26:53.634Z,99275.72
2023-01-08T14:36:58.158Z,99271.56
2023-01-08T14:47:02.040Z,99264.19
2023-01-08T14:57:06.604Z,99267.00
2023-01-08T15:07:22.152Z,99251.28
2023-01-08T15:17:29.441Z,99252.66
2023-01-08T15:27:37.048Z,99240.75
2023-01-08T15:37:43.058Z,99226.84
2023-01-08T15:47:46.272Z,99220.22
2023-01-08T15:57:51.316Z,99227.09
2023-01-08T16:07:54.383Z,99227.50
2023-01-08T16:17:59.842Z,99220.75
2023-01-08T16:28:03.819Z,99202.66
2023-01-08T16:38:10.736Z,99200.16
2023-01-08T16:48:13.918Z,99200.28
2023-01-08T16:58:18.205Z,99174.13
2023-01-08T17:08:21.215Z,99146.84
2023-01-08T17:18:25.663Z,99126.97
2023-01-08T17:28:29.242Z,99138.94
2023-01-08T17:38:33.579Z,99130.19
2023-01-08T17:48:36.804Z,99121.00
2023-01-08T17:58:41.050Z,99107.88
2023-01-08T18:08:43.903Z,99084.34
2023-01-08T18:18:48.384Z,99067.34
2023-01-08T18:28:53.486Z,99068.75
2023-01-08T18:38:58.480Z,99056.09
2023-01-08T18:49:01.669Z,99061.25
2023-01-08T18:59:07.666Z,99030.63
2023-01-08T19:09:10.751Z,99047.66
2023-01-08T19:19:15.491Z,99028.47
2023-01-08T19:29:18.500Z,99015.16
2023-01-08T19:39:23.435Z,98990.38
2023-01-08T19:49:26.944Z,98979.03
2023-01-08T19:59:31.173Z,98949.47
2023-01-08T20:09:34.945Z,98937.44
2023-01-08T20:19:39.785Z,98926.69
2023-01-08T20:29:43.061Z,98908.09
2023-01-08T20:39:47.681Z,98885.88
2023-01-08T20:49:50.958Z,98875.88
2023-01-08T20:59:55.283Z,98874.69
2023-01-08T21:09:58.473Z,98854.13
2023-01-08T21:20:03.946Z,98847.34
2023-01-08T21:30:25.530Z,98832.38
2023-01-08T21:40:29.781Z,98822.88
2023-01-08T21:50:32.979Z,98794.75
2023-01-08T22:00:38.332Z,98783.53
2023-01-08T22:10:41.863Z,98761.91
2023-01-08T22:20:46.673Z,98754.63
2023-01-08T22:30:49.716Z,98757.44
2023-01-08T22:40:54.105Z,98751.06
2023-01-08T22:50:57.135Z,98747.34
2023-01-08T23:01:02.211Z,98763.31
2023-01-08T23:11:05.167Z,98773.44
2023-01-08T23:21:11.419Z,98782.97
2023-01-08T23:31:17.366Z,98769.16
2023-01-08T23:41:23.237Z,98783.28
2023-01-08T23:51:26.248Z,98777.59
